sensor_id;sensor_type;location;lat;lon;timestamp;pressure;altitude;pressure_sealevel;temperature;humidity
43115;BME280;28727;50.068;14.452;2023-11-21T00:01:26;98585.41;;;10.01;73.25
43115;BME280;28727;50.068;14.452;2023-11-21T00:03:58;98582.75;;;10.01;73.23
43115;BME280;28727;50.068;14.452;2023-11-21T00:06:30;98580.28;;;9.99;72.91
43115;BME280;28727;50.068;14.452;2023-11-21T00:09:02;98584.75;;;9.99;73.11
43115;BME280;28727;50.068;14.452;2023-11-21T00:11:34;98587.38;;;9.99;72.99
43115;BME280;28727;50.068;14.452;2023-11-21T00:14:06;98571.56;;;9.99;73.03
43115;BME280;28727;50.068;14.452;2023-11-21T00:16:37;98572.56;;;9.98;73.20
43115;BME280;28727;50.068;14.452;2023-11-21T00:19:11;98576.00;;;9.98;73.23
43115;BME280;28727;50.068;14.452;2023-11-21T00:21:43;98569.09;;;9.97;73.15
43115;BME280;28727;50.068;14.452;2023-11-21T00:24:16;98570.09;;;9.96;73.13
43115;BME280;28727;50.068;14.452;2023-11-21T00:26:48;98583.09;;;9.98;73.24
43115;BME280;28727;50.068;14.452;2023-11-21T00:29:23;98577.56;;;9.93;73.13
43115;BME280;28727;50.068;14.452;2023-11-21T00:31:55;98578.75;;;9.90;73.73
43115;BME280;28727;50.068;14.452;2023-11-21T00:34:27;98579.75;;;9.89;73.56
43115;BME280;28727;50.068;14.452;2023-11-21T00:36:59;98580.94;;;9.86;73.72
43115;BME280;28727;50.068;14.452;2023-11-21T00:39:31;98580.94;;;9.86;73.80
43115;BME280;28727;50.068;14.452;2023-11-21T00:42:05;98587.69;;;9.89;73.88
43115;BME280;28727;50.068;14.452;2023-11-21T00:44:38;98591.09;;;9.90;74.00
43115;BME280;28727;50.068;14.452;2023-11-21T00:47:11;98593.56;;;9.91;73.79
43115;BME280;28727;50.068;14.452;2023-11-21T00:49:44;98590.66;;;9.86;73.84
43115;BME280;28727;50.068;14.452;2023-11-21T00:52:16;98590.03;;;9.84;74.12
43115;BME280;28727;50.068;14.452;2023-11-21T00:54:48;98587.22;;;9.85;74.23
43115;BME280;28727;50.068;14.452;2023-11-21T00:57:24;98585.22;;;9.88;74.33
43115;BME280;28727;50.068;14.452;2023-11-21T00:59:55;98584.22;;;9.89;73.94
43115;BME280;28727;50.068;14.452;2023-11-21T01:02:27;98587.38;;;9.84;73.94
43115;BME280;28727;50.068;14.452;2023-11-21T01:04:59;98586.28;;;9.78;74.54
43115;BME280;28727;50.068;14.452;2023-11-21T01:07:31;98589.75;;;9.79;74.39
43115;BME280;28727;50.068;14.452;2023-11-21T01:10:03;98586.94;;;9.80;74.43
43115;BME280;28727;50.068;14.452;2023-11-21T01:12:39;98592.22;;;9.80;74.26
43115;BME280;28727;50.068;14.452;2023-11-21T01:15:11;98594.03;;;9.80;74.46
43115;BME280;28727;50.068;14.452;2023-11-21T01:17:44;98600.50;;;9.77;74.37
43115;BME280;28727;50.068;14.452;2023-11-21T01:20:16;98596.41;;;9.75;74.78
43115;BME280;28727;50.068;14.452;2023-11-21T01:22:51;98590.69;;;9.71;74.82
43115;BME280;28727;50.068;14.452;2023-11-21T01:25:23;98586.41;;;9.70;74.83
43115;BME280;28727;50.068;14.452;2023-11-21T01:27:55;98582.94;;;9.70;75.08
43115;BME280;28727;50.068;14.452;2023-11-21T01:30:27;98584.75;;;9.69;75.25
43115;BME280;28727;50.068;14.452;2023-11-21T01:33:01;98594.31;;;9.70;75.09
43115;BME280;28727;50.068;14.452;2023-11-21T01:35:34;98586.41;;;9.70;74.98
43115;BME280;28727;50.068;14.452;2023-11-21T01:38:09;98590.84;;;9.70;74.92
43115;BME280;28727;50.068;14.452;2023-11-21T01:40:42;98591.69;;;9.70;75.16
43115;BME280;28727;50.068;14.452;2023-11-21T01:43:14;98598.38;;;9.73;75.06
43115;BME280;28727;50.068;14.452;2023-11-21T01:45:46;98598.22;;;9.74;75.04
43115;BME280;28727;50.068;14.452;2023-11-21T01:48:22;98597.06;;;9.77;74.82
43115;BME280;28727;50.068;14.452;2023-11-21T01:50:54;98605.47;;;9.72;74.89
43115;BME280;28727;50.068;14.452;2023-11-21T01:53:27;98604.31;;;9.75;74.87
43115;BME280;28727;50.068;14.452;2023-11-21T01:55:59;98609.59;;;9.75;74.77
43115;BME280;28727;50.068;14.452;2023-11-21T01:58:31;98599.22;;;9.73;74.54
43115;BME280;28727;50.068;14.452;2023-11-21T02:01:04;98597.56;;;9.72;74.52
43115;BME280;28727;50.068;14.452;2023-11-21T02:03:38;98604.03;;;9.70;74.74
43115;BME280;28727;50.068;14.452;2023-11-21T02:06:12;98605.22;;;9.67;74.95
43115;BME280;28727;50.068;14.452;2023-11-21T02:08:44;98600.94;;;9.66;74.95
43115;BME280;28727;50.068;14.452;2023-11-21T02:11:16;98603.41;;;9.68;75.21
43115;BME280;28727;50.068;14.452;2023-11-21T02:13:51;98600.50;;;9.63;75.58
43115;BME280;28727;50.068;14.452;2023-11-21T02:16:25;98599.03;;;9.60;75.48
43115;BME280;28727;50.068;14.452;2023-11-21T02:19:02;98598.84;;;9.62;75.64
43115;BME280;28727;50.068;14.452;2023-11-21T02:21:37;98598.66;;;9.63;75.99
43115;BME280;28727;50.068;14.452;2023-11-21T02:24:22;98599.03;;;9.60;76.16
43115;BME280;28727;50.068;14.452;2023-11-21T02:26:54;98598.41;;;9.58;76.11
43115;BME280;28727;50.068;14.452;2023-11-21T02:29:26;98592.97;;;9.60;76.22
43115;BME280;28727;50.068;14.452;2023-11-21T02:31:59;98598.22;;;9.60;76.26
43115;BME280;28727;50.068;14.452;2023-11-21T02:34:31;98604.28;;;9.60;76.28
43115;BME280;28727;50.068;14.452;2023-11-21T02:37:03;98592.75;;;9.61;75.91
43115;BME280;28727;50.068;14.452;2023-11-21T02:39:37;98598.22;;;9.60;76.11
43115;BME280;28727;50.068;14.452;2023-11-21T02:42:09;98593.94;;;9.59;76.19
43115;BME280;28727;50.068;14.452;2023-11-21T02:44:41;98594.03;;;9.51;76.21
43115;BME280;28727;50.068;14.452;2023-11-21T02:47:23;98598.47;;;9.50;76.84
43115;BME280;28727;50.068;14.452;2023-11-21T02:49:55;98597.47;;;9.51;76.61
43115;BME280;28727;50.068;14.452;2023-11-21T02:52:28;98594.84;;;9.51;76.37
43115;BME280;28727;50.068;14.452;2023-11-21T02:55:04;98589.41;;;9.53;76.51
43115;BME280;28727;50.068;14.452;2023-11-21T02:57:36;98586.59;;;9.54;76.34
43115;BME280;28727;50.068;14.452;2023-11-21T03:00:09;98583.75;;;9.56;76.33
43115;BME280;28727;50.068;14.452;2023-11-21T03:02:45;98585.56;;;9.55;76.24
43115;BME280;28727;50.068;14.452;2023-11-21T03:05:19;98588.03;;;9.57;76.02
43115;BME280;28727;50.068;14.452;2023-11-21T03:07:52;98581.94;;;9.56;76.01
43115;BME280;28727;50.068;14.452;2023-11-21T03:10:24;98582.75;;;9.57;75.96
43115;BME280;28727;50.068;14.452;2023-11-21T03:12:56;98588.19;;;9.55;75.78
43115;BME280;28727;50.068;14.452;2023-11-21T03:15:29;98587.09;;;9.50;76.12
43115;BME280;28727;50.068;14.452;2023-11-21T03:18:04;98591.75;;;9.48;75.93
43115;BME280;28727;50.068;14.452;2023-11-21T03:20:37;98591.66;;;9.41;76.15
43115;BME280;28727;50.068;14.452;2023-11-21T03:23:14;98593.47;;;9.40;76.68
43115;BME280;28727;50.068;14.452;2023-11-21T03:25:50;98591.66;;;9.41;76.25
43115;BME280;28727;50.068;14.452;2023-11-21T03:28:21;98598.75;;;9.40;76.25
43115;BME280;28727;50.068;14.452;2023-11-21T03:30:54;98593.31;;;9.42;75.94
43115;BME280;28727;50.068;14.452;2023-11-21T03:33:26;98599.56;;;9.41;76.46
43115;BME280;28727;50.068;14.452;2023-11-21T03:36:01;98598.56;;;9.42;76.15
43115;BME280;28727;50.068;14.452;2023-11-21T03:38:33;98592.38;;;9.35;76.76
43115;BME280;28727;50.068;14.452;2023-11-21T03:41:05;98604.72;;;9.34;76.60
43115;BME280;28727;50.068;14.452;2023-11-21T03:43:37;98605.38;;;9.36;76.54
43115;BME280;28727;50.068;14.452;2023-11-21T03:46:12;98601.94;;;9.36;76.29
43115;BME280;28727;50.068;14.452;2023-11-21T03:48:44;98597.66;;;9.35;76.08
43115;BME280;28727;50.068;14.452;2023-11-21T03:51:19;98593.38;;;9.34;76.25
43115;BME280;28727;50.068;14.452;2023-11-21T03:53:51;98604.09;;;9.32;76.45
43115;BME280;28727;50.068;14.452;2023-11-21T03:56:24;98604.78;;;9.26;76.46
43115;BME280;28727;50.068;14.452;2023-11-21T03:58:55;98612.09;;;9.24;76.70
43115;BME280;28727;50.068;14.452;2023-11-21T04:01:27;98613.53;;;9.27;76.26
43115;BME280;28727;50.068;14.452;2023-11-21T04:04:02;98620.16;;;9.23;76.70
43115;BME280;28727;50.068;14.452;2023-11-21T04:06:38;98634.22;;;9.15;77.11
43115;BME280;28727;50.068;14.452;2023-11-21T04:09:12;98626.97;;;9.17;76.80
43115;BME280;28727;50.068;14.452;2023-11-21T04:11:46;98628.94;;;9.15;76.58
43115;BME280;28727;50.068;14.452;2023-11-21T04:14:19;98623.50;;;9.17;76.68
43115;BME280;28727;50.068;14.452;2023-11-21T04:16:51;98621.53;;;9.19;76.54
43115;BME280;28727;50.068;14.452;2023-11-21T04:19:23;98626.59;;;9.20;76.53
43115;BME280;28727;50.068;14.452;2023-11-21T04:21:55;98618.88;;;9.19;76.61
43115;BME280;28727;50.068;14.452;2023-11-21T04:24:27;98622.31;;;9.19;76.72
43115;BME280;28727;50.068;14.452;2023-11-21T04:27:01;98623.03;;;9.13;77.18
43115;BME280;28727;50.068;14.452;2023-11-21T04:29:34;98636.19;;;9.13;77.08
43115;BME280;28727;50.068;14.452;2023-11-21T04:32:06;98633.06;;;9.18;76.83
43115;BME280;28727;50.068;14.452;2023-11-21T04:34:39;98632.69;;;9.21;76.65
43115;BME280;28727;50.068;14.452;2023-11-21T04:37:11;98634.31;;;9.22;77.07
43115;BME280;28727;50.068;14.452;2023-11-21T04:39:43;98634.16;;;9.23;76.87
43115;BME280;28727;50.068;14.452;2023-11-21T04:42:15;98639.22;;;9.25;76.27
43115;BME280;28727;50.068;14.452;2023-11-21T04:44:48;98635.84;;;9.16;76.70
43115;BME280;28727;50.068;14.452;2023-11-21T04:47:20;98639.97;;;9.19;76.80
43115;BME280;28727;50.068;14.452;2023-11-21T04:49:54;98628.13;;;9.15;77.02
43115;BME280;28727;50.068;14.452;2023-11-21T04:52:26;98639.13;;;9.18;77.05
43115;BME280;28727;50.068;14.452;2023-11-21T04:54:58;98631.03;;;9.20;76.91
43115;BME280;28727;50.068;14.452;2023-11-21T04:57:32;98634.16;;;9.23;76.89
43115;BME280;28727;50.068;14.452;2023-11-21T05:00:04;98647.13;;;9.25;76.66
43115;BME280;28727;50.068;14.452;2023-11-21T05:02:40;98643.16;;;9.29;76.81
43115;BME280;28727;50.068;14.452;2023-11-21T05:05:13;98643.97;;;9.29;76.62
43115;BME280;28727;50.068;14.452;2023-11-21T05:07:46;98631.44;;;9.31;76.68
43115;BME280;28727;50.068;14.452;2023-11-21T05:10:18;98638.34;;;9.32;76.64
43115;BME280;28727;50.068;14.452;2023-11-21T05:12:50;98638.34;;;9.32;76.23
43115;BME280;28727;50.068;14.452;2023-11-21T05:15:25;98646.53;;;9.37;76.46
43115;BME280;28727;50.068;14.452;2023-11-21T05:17:59;98649.00;;;9.39;76.38
43115;BME280;28727;50.068;14.452;2023-11-21T05:20:31;98649.00;;;9.39;75.95
43115;BME280;28727;50.068;14.452;2023-11-21T05:23:04;98645.38;;;9.40;76.26
43115;BME280;28727;50.068;14.452;2023-11-21T05:25:39;98648.16;;;9.38;76.10
43115;BME280;28727;50.068;14.452;2023-11-21T05:28:13;98650.00;;;9.38;76.19
43115;BME280;28727;50.068;14.452;2023-11-21T05:30:45;98649.81;;;9.39;76.71
43115;BME280;28727;50.068;14.452;2023-11-21T05:33:16;98655.25;;;9.38;76.63
43115;BME280;28727;50.068;14.452;2023-11-21T05:35:49;98662.53;;;9.36;75.98
43115;BME280;28727;50.068;14.452;2023-11-21T05:38:21;98664.06;;;9.30;76.28
43115;BME280;28727;50.068;14.452;2023-11-21T05:40:53;98662.88;;;9.33;76.91
43115;BME280;28727;50.068;14.452;2023-11-21T05:43:26;98671.28;;;9.36;76.59
43115;BME280;28727;50.068;14.452;2023-11-21T05:45:59;98663.53;;;9.35;76.38
43115;BME280;28727;50.068;14.452;2023-11-21T05:48:31;98664.97;;;9.37;76.46
43115;BME280;28727;50.068;14.452;2023-11-21T05:51:05;98654.28;;;9.39;76.57
43115;BME280;28727;50.068;14.452;2023-11-21T05:53:37;98666.09;;;9.43;76.30
43115;BME280;28727;50.068;14.452;2023-11-21T05:56:10;98664.81;;;9.39;76.13
43115;BME280;28727;50.068;14.452;2023-11-21T05:58:42;98658.72;;;9.38;76.22
43115;BME280;28727;50.068;14.452;2023-11-21T06:01:14;98664.97;;;9.37;76.04
43115;BME280;28727;50.068;14.452;2023-11-21T06:03:46;98667.44;;;9.39;75.75
43115;BME280;28727;50.068;14.452;2023-11-21T06:06:18;98674.53;;;9.38;76.20
43115;BME280;28727;50.068;14.452;2023-11-21T06:08:51;98673.91;;;9.36;75.78
43115;BME280;28727;50.068;14.452;2023-11-21T06:11:23;98679.97;;;9.37;76.14
43115;BME280;28727;50.068;14.452;2023-11-21T06:13:56;98680.63;;;9.39;76.07
43115;BME280;28727;50.068;14.452;2023-11-21T06:16:28;98686.06;;;9.37;75.69
43115;BME280;28727;50.068;14.452;2023-11-21T06:19:00;98682.97;;;9.34;75.75
43115;BME280;28727;50.068;14.452;2023-11-21T06:21:33;98682.31;;;9.32;75.92
43115;BME280;28727;50.068;14.452;2023-11-21T06:24:07;98686.59;;;9.33;76.05
43115;BME280;28727;50.068;14.452;2023-11-21T06:26:39;98693.97;;;9.37;75.67
43115;BME280;28727;50.068;14.452;2023-11-21T06:29:11;98696.44;;;9.39;75.90
43115;BME280;28727;50.068;14.452;2023-11-21T06:31:42;98702.69;;;9.38;75.78
43115;BME280;28727;50.068;14.452;2023-11-21T06:34:15;98694.78;;;9.38;75.93
43115;BME280;28727;50.068;14.452;2023-11-21T06:36:47;98699.25;;;9.37;75.85
43115;BME280;28727;50.068;14.452;2023-11-21T06:39:19;98704.19;;;9.40;75.32
43115;BME280;28727;50.068;14.452;2023-11-21T06:41:54;98705.34;;;9.38;75.58
43115;BME280;28727;50.068;14.452;2023-11-21T06:44:26;98710.16;;;9.34;77.62
43115;BME280;28727;50.068;14.452;2023-11-21T06:46:57;98712.63;;;9.36;76.18
43115;BME280;28727;50.068;14.452;2023-11-21T06:49:29;98705.53;;;9.36;75.98
43115;BME280;28727;50.068;14.452;2023-11-21T06:52:03;98712.25;;;9.39;76.45
43115;BME280;28727;50.068;14.452;2023-11-21T06:54:37;98714.56;;;9.42;76.47
43115;BME280;28727;50.068;14.452;2023-11-21T06:57:09;98714.34;;;9.43;76.46
43115;BME280;28727;50.068;14.452;2023-11-21T06:59:41;98717.97;;;9.42;76.35
43115;BME280;28727;50.068;14.452;2023-11-21T07:02:13;98722.47;;;9.42;76.25
43115;BME280;28727;50.068;14.452;2023-11-21T07:04:46;98722.91;;;9.45;76.26
43115;BME280;28727;50.068;14.452;2023-11-21T07:07:18;98721.28;;;9.44;75.98
43115;BME280;28727;50.068;14.452;2023-11-21T07:09:51;98729.53;;;9.41;75.58
43115;BME280;28727;50.068;14.452;2023-11-21T07:12:23;98726.38;;;9.46;75.51
43115;BME280;28727;50.068;14.452;2023-11-21T07:14:58;98720.94;;;9.48;75.31
43115;BME280;28727;50.068;14.452;2023-11-21T07:17:30;98727.66;;;9.50;75.14
43115;BME280;28727;50.068;14.452;2023-11-21T07:20:03;98728.59;;;9.57;75.06
43115;BME280;28727;50.068;14.452;2023-11-21T07:22:35;98725.56;;;9.60;74.83
43115;BME280;28727;50.068;14.452;2023-11-21T07:25:07;98726.72;;;9.66;74.64
43115;BME280;28727;50.068;14.452;2023-11-21T07:27:41;98727.81;;;9.71;74.06
43115;BME280;28727;50.068;14.452;2023-11-21T07:30:15;98736.19;;;9.75;74.02
43115;BME280;28727;50.068;14.452;2023-11-21T07:32:47;98738.28;;;9.79;74.23
43115;BME280;28727;50.068;14.452;2023-11-21T07:35:19;98744.75;;;9.92;73.85
43115;BME280;28727;50.068;14.452;2023-11-21T07:37:51;98747.69;;;9.97;74.36
43115;BME280;28727;50.068;14.452;2023-11-21T07:40:23;98737.16;;;10.11;73.59
43115;BME280;28727;50.068;14.452;2023-11-21T07:42:55;98740.81;;;10.25;73.02
43115;BME280;28727;50.068;14.452;2023-11-21T07:45:28;98740.66;;;10.41;72.43
43115;BME280;28727;50.068;14.452;2023-11-21T07:48:00;98740.16;;;10.67;71.76
43115;BME280;28727;50.068;14.452;2023-11-21T07:50:34;98736.22;;;10.92;70.63
43115;BME280;28727;50.068;14.452;2023-11-21T07:53:06;98746.56;;;11.72;69.24
43115;BME280;28727;50.068;14.452;2023-11-21T07:55:38;98749.06;;;12.70;65.32
43115;BME280;28727;50.068;14.452;2023-11-21T07:58:10;98746.28;;;13.79;62.35
43115;BME280;28727;50.068;14.452;2023-11-21T08:00:44;98740.38;;;13.77;62.11
43115;BME280;28727;50.068;14.452;2023-11-21T08:03:16;98743.84;;;13.58;60.89
43115;BME280;28727;50.068;14.452;2023-11-21T08:05:48;98737.69;;;13.31;62.07
43115;BME280;28727;50.068;14.452;2023-11-21T08:08:20;98736.06;;;12.82;62.46
43115;BME280;28727;50.068;14.452;2023-11-21T08:10:52;98735.94;;;12.56;62.94
43115;BME280;28727;50.068;14.452;2023-11-21T08:13:29;98745.78;;;12.27;63.82
43115;BME280;28727;50.068;14.452;2023-11-21T08:16:02;98748.03;;;12.03;64.57
43115;BME280;28727;50.068;14.452;2023-11-21T08:18:36;98748.53;;;11.85;65.15
43115;BME280;28727;50.068;14.452;2023-11-21T08:21:08;98750.69;;;11.75;64.88
43115;BME280;28727;50.068;14.452;2023-11-21T08:23:40;98755.97;;;11.54;65.35
43115;BME280;28727;50.068;14.452;2023-11-21T08:26:12;98755.50;;;11.50;65.32
43115;BME280;28727;50.068;14.452;2023-11-21T08:28:44;98759.16;;;11.49;65.78
43115;BME280;28727;50.068;14.452;2023-11-21T08:31:23;98754.13;;;11.33;65.90
43115;BME280;28727;50.068;14.452;2023-11-21T08:33:56;98753.53;;;11.31;66.24
43115;BME280;28727;50.068;14.452;2023-11-21T08:36:28;98769.38;;;11.31;65.94
43115;BME280;28727;50.068;14.452;2023-11-21T08:38:59;98767.34;;;11.33;65.92
43115;BME280;28727;50.068;14.452;2023-11-21T08:41:31;98758.28;;;11.21;65.48
43115;BME280;28727;50.068;14.452;2023-11-21T08:44:03;98761.66;;;11.15;65.92
43115;BME280;28727;50.068;14.452;2023-11-21T08:46:38;98755.94;;;11.11;65.88
43115;BME280;28727;50.068;14.452;2023-11-21T08:49:14;98771.88;;;11.18;65.82
43115;BME280;28727;50.068;14.452;2023-11-21T08:51:47;98772.69;;;11.18;65.92
43115;BME280;28727;50.068;14.452;2023-11-21T08:54:18;98778.59;;;11.20;65.72
43115;BME280;28727;50.068;14.452;2023-11-21T08:56:54;98779.81;;;11.18;65.43
43115;BME280;28727;50.068;14.452;2023-11-21T08:59:26;98781.97;;;11.14;65.44
43115;BME280;28727;50.068;14.452;2023-11-21T09:01:58;98781.16;;;11.14;65.81
43115;BME280;28727;50.068;14.452;2023-11-21T09:04:30;98784.28;;;11.17;65.60
43115;BME280;28727;50.068;14.452;2023-11-21T09:07:02;98780.97;;;11.15;65.50
43115;BME280;28727;50.068;14.452;2023-11-21T09:09:34;98780.47;;;11.05;66.07
43115;BME280;28727;50.068;14.452;2023-11-21T09:12:06;98793.44;;;11.00;66.11
43115;BME280;28727;50.068;14.452;2023-11-21T09:14:38;98790.69;;;10.93;66.05
43115;BME280;28727;50.068;14.452;2023-11-21T09:17:10;98786.59;;;10.91;65.98
43115;BME280;28727;50.068;14.452;2023-11-21T09:19:44;98802.09;;;10.94;65.69
43115;BME280;28727;50.068;14.452;2023-11-21T09:22:21;98801.28;;;10.93;65.95
43115;BME280;28727;50.068;14.452;2023-11-21T09:24:53;98804.56;;;10.95;65.93
43115;BME280;28727;50.068;14.452;2023-11-21T09:27:25;98808.38;;;10.93;66.16
43115;BME280;28727;50.068;14.452;2023-11-21T09:29:59;98809.38;;;10.92;65.77
43115;BME280;28727;50.068;14.452;2023-11-21T09:32:31;98803.25;;;10.91;66.08
43115;BME280;28727;50.068;14.452;2023-11-21T09:35:06;98813.22;;;10.89;66.28
43115;BME280;28727;50.068;14.452;2023-11-21T09:37:41;98803.44;;;10.90;66.45
43115;BME280;28727;50.068;14.452;2023-11-21T09:40:21;98816.84;;;10.88;66.50
43115;BME280;28727;50.068;14.452;2023-11-21T09:42:55;98818.50;;;10.89;66.54
43115;BME280;28727;50.068;14.452;2023-11-21T09:45:29;98810.75;;;10.88;66.40
43115;BME280;28727;50.068;14.452;2023-11-21T09:48:06;98817.84;;;10.87;66.45
43115;BME280;28727;50.068;14.452;2023-11-21T09:50:41;98819.28;;;10.90;66.38
43115;BME280;28727;50.068;14.452;2023-11-21T09:53:18;98820.59;;;10.94;66.32
43115;BME280;28727;50.068;14.452;2023-11-21T09:55:53;98825.13;;;11.00;66.71
43115;BME280;28727;50.068;14.452;2023-11-21T09:58:25;98823.03;;;11.10;66.45
43115;BME280;28727;50.068;14.452;2023-11-21T10:00:59;98817.28;;;11.06;66.17
43115;BME280;28727;50.068;14.452;2023-11-21T10:03:37;98821.28;;;11.02;65.73
43115;BME280;28727;50.068;14.452;2023-11-21T10:06:13;98819.13;;;11.06;65.76
43115;BME280;28727;50.068;14.452;2023-11-21T10:08:46;98814.25;;;11.09;65.57
43115;BME280;28727;50.068;14.452;2023-11-21T10:11:27;98811.78;;;11.23;67.75
43115;BME280;28727;50.068;14.452;2023-11-21T10:13:59;98816.75;;;11.47;68.84
43115;BME280;28727;50.068;14.452;2023-11-21T10:16:33;98819.13;;;11.78;67.87
43115;BME280;28727;50.068;14.452;2023-11-21T10:19:09;98813.75;;;11.93;64.82
43115;BME280;28727;50.068;14.452;2023-11-21T10:21:42;98822.84;;;11.83;63.63
43115;BME280;28727;50.068;14.452;2023-11-21T10:24:14;98818.19;;;11.71;63.49
43115;BME280;28727;50.068;14.452;2023-11-21T10:26:47;98821.22;;;11.68;63.82
43115;BME280;28727;50.068;14.452;2023-11-21T10:29:24;98822.84;;;11.69;63.36
43115;BME280;28727;50.068;14.452;2023-11-21T10:31:59;98816.31;;;11.65;63.14
43115;BME280;28727;50.068;14.452;2023-11-21T10:34:31;98819.06;;;11.57;63.03
43115;BME280;28727;50.068;14.452;2023-11-21T10:37:13;98820.81;;;11.49;62.34
43115;BME280;28727;50.068;14.452;2023-11-21T10:39:48;98811.06;;;11.50;62.44
43115;BME280;28727;50.068;14.452;2023-11-21T10:42:21;98818.00;;;11.51;62.50
43115;BME280;28727;50.068;14.452;2023-11-21T10:44:56;98816.00;;;11.53;62.60
43115;BME280;28727;50.068;14.452;2023-11-21T10:47:28;98815.78;;;11.55;62.60
43115;BME280;28727;50.068;14.452;2023-11-21T10:50:04;98813.09;;;11.48;61.95
43115;BME280;28727;50.068;14.452;2023-11-21T10:52:39;98810.22;;;11.49;62.46
43115;BME280;28727;50.068;14.452;2023-11-21T10:55:18;98818.16;;;11.49;62.41
43115;BME280;28727;50.068;14.452;2023-11-21T10:57:54;98820.56;;;11.44;62.50
43115;BME280;28727;50.068;14.452;2023-11-21T11:00:26;98814.66;;;11.42;65.05
43115;BME280;28727;50.068;14.452;2023-11-21T11:02:59;98816.91;;;11.45;63.04
43115;BME280;28727;50.068;14.452;2023-11-21T11:05:32;98812.81;;;11.43;62.85
43115;BME280;28727;50.068;14.452;2023-11-21T11:08:05;98811.56;;;11.39;62.43
43115;BME280;28727;50.068;14.452;2023-11-21T11:10:39;98811.38;;;11.40;62.41
43115;BME280;28727;50.068;14.452;2023-11-21T11:13:11;98806.31;;;11.60;66.54
43115;BME280;28727;50.068;14.452;2023-11-21T11:15:47;98798.94;;;11.98;66.30
43115;BME280;28727;50.068;14.452;2023-11-21T11:18:22;98797.59;;;12.37;65.57
43115;BME280;28727;50.068;14.452;2023-11-21T11:21:09;98792.28;;;12.71;66.90
43115;BME280;28727;50.068;14.452;2023-11-21T11:26:33;98804.81;;;13.38;61.57
43115;BME280;28727;50.068;14.452;2023-11-21T11:35:22;98791.22;;;14.46;57.45
43115;BME280;28727;50.068;14.452;2023-11-21T11:37:56;98786.09;;;14.64;58.25
43115;BME280;28727;50.068;14.452;2023-11-21T11:40:47;98791.38;;;14.78;56.77
43115;BME280;28727;50.068;14.452;2023-11-21T11:43:26;98791.91;;;14.93;56.13
43115;BME280;28727;50.068;14.452;2023-11-21T11:46:03;98802.91;;;15.03;56.08
43115;BME280;28727;50.068;14.452;2023-11-21T11:48:39;98796.59;;;14.97;53.80
43115;BME280;28727;50.068;14.452;2023-11-21T11:51:13;98787.63;;;14.92;54.67
43115;BME280;28727;50.068;14.452;2023-11-21T11:53:53;98792.56;;;14.82;53.66
43115;BME280;28727;50.068;14.452;2023-11-21T11:56:29;98792.59;;;14.68;54.20
43115;BME280;28727;50.068;14.452;2023-11-21T11:59:04;98801.41;;;14.62;54.73
43115;BME280;28727;50.068;14.452;2023-11-21T12:01:36;98803.91;;;14.44;54.96
43115;BME280;28727;50.068;14.452;2023-11-21T12:06:46;98809.81;;;14.26;54.01
43115;BME280;28727;50.068;14.452;2023-11-21T12:09:21;98808.19;;;13.99;53.27
43115;BME280;28727;50.068;14.452;2023-11-21T12:11:54;98808.38;;;13.84;53.21
43115;BME280;28727;50.068;14.452;2023-11-21T12:14:28;98814.88;;;13.56;51.75
43115;BME280;28727;50.068;14.452;2023-11-21T12:17:02;98818.81;;;13.12;52.92
43115;BME280;28727;50.068;14.452;2023-11-21T12:19:36;98807.97;;;12.72;52.60
43115;BME280;28727;50.068;14.452;2023-11-21T12:22:09;98811.72;;;12.50;53.47
43115;BME280;28727;50.068;14.452;2023-11-21T12:24:41;98814.34;;;12.44;53.53
43115;BME280;28727;50.068;14.452;2023-11-21T12:27:13;98818.34;;;12.33;54.08
43115;BME280;28727;50.068;14.452;2023-11-21T12:29:46;98821.94;;;12.25;54.31
43115;BME280;28727;50.068;14.452;2023-11-21T12:32:19;98823.53;;;12.20;54.42
43115;BME280;28727;50.068;14.452;2023-11-21T12:34:55;98824.44;;;12.06;54.85
43115;BME280;28727;50.068;14.452;2023-11-21T12:37:27;98828.56;;;11.87;55.06
43115;BME280;28727;50.068;14.452;2023-11-21T12:40:01;98832.88;;;11.73;55.78
43115;BME280;28727;50.068;14.452;2023-11-21T12:42:34;98825.59;;;11.61;56.81
43115;BME280;28727;50.068;14.452;2023-11-21T12:45:27;98826.31;;;11.48;57.04
43115;BME280;28727;50.068;14.452;2023-11-21T12:48:02;98823.78;;;11.40;57.88
43115;BME280;28727;50.068;14.452;2023-11-21T12:50:40;98828.25;;;11.39;58.11
43115;BME280;28727;50.068;14.452;2023-11-21T12:53:13;98822.19;;;11.45;58.27
43115;BME280;28727;50.068;14.452;2023-11-21T12:55:45;98826.34;;;11.33;58.63
43115;BME280;28727;50.068;14.452;2023-11-21T12:58:23;98824.00;;;11.24;59.40
43115;BME280;28727;50.068;14.452;2023-11-21T13:00:58;98825.44;;;11.26;59.80
43115;BME280;28727;50.068;14.452;2023-11-21T13:03:32;98831.13;;;11.23;60.09
43115;BME280;28727;50.068;14.452;2023-11-21T13:06:07;98830.84;;;11.18;60.37
43115;BME280;28727;50.068;14.452;2023-11-21T13:08:39;98826.09;;;11.14;60.65
43115;BME280;28727;50.068;14.452;2023-11-21T13:11:11;98827.66;;;11.08;61.18
43115;BME280;28727;50.068;14.452;2023-11-21T13:13:45;98832.69;;;11.03;61.41
43115;BME280;28727;50.068;14.452;2023-11-21T13:16:18;98837.78;;;10.90;62.26
43115;BME280;28727;50.068;14.452;2023-11-21T13:18:52;98839.00;;;10.87;62.31
43115;BME280;28727;50.068;14.452;2023-11-21T13:21:24;98845.72;;;10.90;62.53
43115;BME280;28727;50.068;14.452;2023-11-21T13:23:56;98844.00;;;10.82;62.68
43115;BME280;28727;50.068;14.452;2023-11-21T13:26:27;98846.91;;;10.73;62.99
43115;BME280;28727;50.068;14.452;2023-11-21T13:28:59;98850.94;;;10.68;63.56
43115;BME280;28727;50.068;14.452;2023-11-21T13:31:31;98846.09;;;10.57;64.18
43115;BME280;28727;50.068;14.452;2023-11-21T13:34:04;98853.63;;;10.46;64.62
43115;BME280;28727;50.068;14.452;2023-11-21T13:36:40;98860.09;;;10.43;65.42
43115;BME280;28727;50.068;14.452;2023-11-21T13:39:14;98864.38;;;10.44;65.49